sensor_id;sensor_type;location;lat;lon;timestamp;P1;durP1;ratioP1;P2;durP2;ratioP2
40290;SDS011;26000;48.304;13.626;2023-05-07T00:01:08;11.38;;;7.70;;
40290;SDS011;26000;48.304;13.626;2023-05-07T00:03:35;9.50;;;8.10;;
40290;SDS011;26000;48.304;13.626;2023-05-07T00:06:01;10.13;;;8.68;;
40290;SDS011;26000;48.304;13.626;2023-05-07T00:08:27;11.82;;;8.77;;
40290;SDS011;26000;48.304;13.626;2023-05-07T00:10:52;9.75;;;8.07;;
40290;SDS011;26000;48.304;13.626;2023-05-07T00:13:18;11.48;;;8.43;;
40290;SDS011;26000;48.304;13.626;2023-05-07T00:15:43;9.82;;;8.80;;
40290;SDS011;26000;48.304;13.626;2023-05-07T00:18:09;10.00;;;8.32;;
40290;SDS011;26000;48.304;13.626;2023-05-07T00:20:35;11.35;;;8.50;;
40290;SDS011;26000;48.304;13.626;2023-05-07T00:23:00;9.50;;;8.43;;
40290;SDS011;26000;48.304;13.626;2023-05-07T00:25:26;10.88;;;8.75;;
40290;SDS011;26000;48.304;13.626;2023-05-07T00:27:51;10.75;;;8.77;;
40290;SDS011;26000;48.304;13.626;2023-05-07T00:30:17;9.30;;;8.40;;
40290;SDS011;26000;48.304;13.626;2023-05-07T00:32:43;11.65;;;8.50;;
40290;SDS011;26000;48.304;13.626;2023-05-07T00:35:10;11.18;;;8.52;;
40290;SDS011;26000;48.304;13.626;2023-05-07T00:37:36;11.25;;;8.63;;
40290;SDS011;26000;48.304;13.626;2023-05-07T00:40:02;9.25;;;8.32;;
40290;SDS011;26000;48.304;13.626;2023-05-07T00:42:29;11.27;;;9.18;;
40290;SDS011;26000;48.304;13.626;2023-05-07T00:44:57;13.38;;;8.73;;
40290;SDS011;26000;48.304;13.626;2023-05-07T00:47:23;13.15;;;10.15;;
40290;SDS011;26000;48.304;13.626;2023-05-07T00:49:49;9.95;;;8.82;;
40290;SDS011;26000;48.304;13.626;2023-05-07T00:52:16;14.77;;;8.77;;
40290;SDS011;26000;48.304;13.626;2023-05-07T00:54:44;14.10;;;9.75;;
40290;SDS011;26000;48.304;13.626;2023-05-07T00:57:10;12.15;;;10.27;;
40290;SDS011;26000;48.304;13.626;2023-05-07T00:59:36;11.73;;;10.52;;
40290;SDS011;26000;48.304;13.626;2023-05-07T01:02:02;11.68;;;9.75;;
40290;SDS011;26000;48.304;13.626;2023-05-07T01:04:28;11.50;;;10.18;;
40290;SDS011;26000;48.304;13.626;2023-05-07T01:06:54;11.55;;;10.35;;
40290;SDS011;26000;48.304;13.626;2023-05-07T01:09:21;11.93;;;10.65;;
40290;SDS011;26000;48.304;13.626;2023-05-07T01:11:49;12.55;;;10.02;;
40290;SDS011;26000;48.304;13.626;2023-05-07T01:14:16;11.13;;;10.02;;
40290;SDS011;26000;48.304;13.626;2023-05-07T01:16:42;15.57;;;10.65;;
40290;SDS011;26000;48.304;13.626;2023-05-07T01:19:09;11.95;;;10.75;;
40290;SDS011;26000;48.304;13.626;2023-05-07T01:21:36;23.05;;;18.27;;
40290;SDS011;26000;48.304;13.626;2023-05-07T01:24:03;18.67;;;16.52;;
40290;SDS011;26000;48.304;13.626;2023-05-07T01:26:30;23.92;;;19.92;;
40290;SDS011;26000;48.304;13.626;2023-05-07T01:28:56;15.88;;;14.25;;
40290;SDS011;26000;48.304;13.626;2023-05-07T01:31:21;12.43;;;11.13;;
40290;SDS011;26000;48.304;13.626;2023-05-07T01:33:48;11.20;;;10.00;;
40290;SDS011;26000;48.304;13.626;2023-05-07T01:36:17;10.30;;;9.15;;
40290;SDS011;26000;48.304;13.626;2023-05-07T01:38:43;15.95;;;10.68;;
40290;SDS011;26000;48.304;13.626;2023-05-07T01:41:11;12.30;;;9.52;;
40290;SDS011;26000;48.304;13.626;2023-05-07T01:43:37;11.18;;;9.00;;
40290;SDS011;26000;48.304;13.626;2023-05-07T01:46:03;11.65;;;8.80;;
40290;SDS011;26000;48.304;13.626;2023-05-07T01:48:29;11.85;;;9.48;;
40290;SDS011;26000;48.304;13.626;2023-05-07T01:50:55;9.63;;;8.65;;
40290;SDS011;26000;48.304;13.626;2023-05-07T01:53:21;14.07;;;9.82;;
40290;SDS011;26000;48.304;13.626;2023-05-07T01:55:47;11.18;;;9.60;;
40290;SDS011;26000;48.304;13.626;2023-05-07T01:58:12;9.98;;;8.98;;
40290;SDS011;26000;48.304;13.626;2023-05-07T02:00:38;12.98;;;9.95;;
40290;SDS011;26000;48.304;13.626;2023-05-07T02:03:04;13.88;;;9.25;;
40290;SDS011;26000;48.304;13.626;2023-05-07T02:05:30;11.40;;;9.30;;
40290;SDS011;26000;48.304;13.626;2023-05-07T02:07:56;11.60;;;8.82;;
40290;SDS011;26000;48.304;13.626;2023-05-07T02:10:21;10.18;;;9.18;;
40290;SDS011;26000;48.304;13.626;2023-05-07T02:12:47;11.93;;;9.63;;
40290;SDS011;26000;48.304;13.626;2023-05-07T02:15:12;11.18;;;9.68;;
40290;SDS011;26000;48.304;13.626;2023-05-07T02:17:39;11.00;;;9.90;;
40290;SDS011;26000;48.304;13.626;2023-05-07T02:20:26;12.57;;;10.07;;
40290;SDS011;26000;48.304;13.626;2023-05-07T02:22:52;11.80;;;10.60;;
40290;SDS011;26000;48.304;13.626;2023-05-07T02:25:18;12.25;;;9.85;;
40290;SDS011;26000;48.304;13.626;2023-05-07T02:27:43;13.00;;;10.65;;
40290;SDS011;26000;48.304;13.626;2023-05-07T02:30:09;11.60;;;10.48;;
40290;SDS011;26000;48.304;13.626;2023-05-07T02:32:35;12.65;;;10.27;;
40290;SDS011;26000;48.304;13.626;2023-05-07T02:35:00;12.10;;;10.65;;
40290;SDS011;26000;48.304;13.626;2023-05-07T02:37:26;13.93;;;10.25;;
40290;SDS011;26000;48.304;13.626;2023-05-07T02:39:52;12.32;;;10.10;;
40290;SDS011;26000;48.304;13.626;2023-05-07T02:42:17;11.43;;;10.23;;
40290;SDS011;26000;48.304;13.626;2023-05-07T02:44:43;11.52;;;10.07;;
40290;SDS011;26000;48.304;13.626;2023-05-07T02:47:08;11.95;;;10.75;;
40290;SDS011;26000;48.304;13.626;2023-05-07T02:49:35;12.30;;;10.20;;
40290;SDS011;26000;48.304;13.626;2023-05-07T02:52:00;15.93;;;10.68;;
40290;SDS011;26000;48.304;13.626;2023-05-07T02:54:26;11.68;;;10.48;;
40290;SDS011;26000;48.304;13.626;2023-05-07T02:56:52;12.73;;;10.80;;
40290;SDS011;26000;48.304;13.626;2023-05-07T02:59:17;12.13;;;10.25;;
40290;SDS011;26000;48.304;13.626;2023-05-07T03:01:43;11.65;;;10.40;;
40290;SDS011;26000;48.304;13.626;2023-05-07T03:04:10;12.57;;;10.52;;
40290;SDS011;26000;48.304;13.626;2023-05-07T03:06:36;12.35;;;10.55;;
40290;SDS011;26000;48.304;13.626;2023-05-07T03:09:02;14.25;;;10.40;;
40290;SDS011;26000;48.304;13.626;2023-05-07T03:11:28;12.85;;;9.80;;
40290;SDS011;26000;48.304;13.626;2023-05-07T03:13:53;12.63;;;10.05;;
40290;SDS011;26000;48.304;13.626;2023-05-07T03:16:19;11.93;;;10.73;;
40290;SDS011;26000;48.304;13.626;2023-05-07T03:18:45;11.13;;;9.93;;
40290;SDS011;26000;48.304;13.626;2023-05-07T03:21:10;10.90;;;9.80;;
40290;SDS011;26000;48.304;13.626;2023-05-07T03:23:36;12.90;;;9.88;;
40290;SDS011;26000;48.304;13.626;2023-05-07T03:26:02;12.20;;;9.95;;
40290;SDS011;26000;48.304;13.626;2023-05-07T03:28:27;11.30;;;9.95;;
40290;SDS011;26000;48.304;13.626;2023-05-07T03:30:53;10.32;;;9.20;;
40290;SDS011;26000;48.304;13.626;2023-05-07T03:33:18;10.85;;;9.70;;
40290;SDS011;26000;48.304;13.626;2023-05-07T03:35:44;10.85;;;9.75;;
40290;SDS011;26000;48.304;13.626;2023-05-07T03:38:11;11.00;;;9.88;;
40290;SDS011;26000;48.304;13.626;2023-05-07T03:40:36;13.23;;;10.10;;
40290;SDS011;26000;48.304;13.626;2023-05-07T03:43:02;12.65;;;9.65;;
40290;SDS011;26000;48.304;13.626;2023-05-07T03:45:27;10.60;;;9.50;;
40290;SDS011;26000;48.304;13.626;2023-05-07T03:47:53;10.82;;;9.73;;
40290;SDS011;26000;48.304;13.626;2023-05-07T03:50:19;11.02;;;9.50;;
40290;SDS011;26000;48.304;13.626;2023-05-07T03:52:45;10.90;;;9.80;;
40290;SDS011;26000;48.304;13.626;2023-05-07T03:55:10;10.35;;;9.32;;
40290;SDS011;26000;48.304;13.626;2023-05-07T03:57:36;11.38;;;9.25;;
40290;SDS011;26000;48.304;13.626;2023-05-07T04:00:02;11.18;;;9.18;;
40290;SDS011;26000;48.304;13.626;2023-05-07T04:02:29;10.75;;;9.57;;
40290;SDS011;26000;48.304;13.626;2023-05-07T04:04:55;10.25;;;9.10;;
40290;SDS011;26000;48.304;13.626;2023-05-07T04:07:21;10.35;;;8.93;;
40290;SDS011;26000;48.304;13.626;2023-05-07T04:09:47;12.55;;;9.07;;
40290;SDS011;26000;48.304;13.626;2023-05-07T04:12:12;9.65;;;8.65;;
40290;SDS011;26000;48.304;13.626;2023-05-07T04:14:38;9.68;;;8.75;;
40290;SDS011;26000;48.304;13.626;2023-05-07T04:17:04;9.50;;;8.55;;
40290;SDS011;26000;48.304;13.626;2023-05-07T04:19:30;11.88;;;8.95;;
40290;SDS011;26000;48.304;13.626;2023-05-07T04:21:58;9.35;;;8.38;;
40290;SDS011;26000;48.304;13.626;2023-05-07T04:24:24;9.35;;;8.38;;
40290;SDS011;26000;48.304;13.626;2023-05-07T04:26:50;9.98;;;8.30;;
40290;SDS011;26000;48.304;13.626;2023-05-07T04:29:16;11.63;;;8.10;;
40290;SDS011;26000;48.304;13.626;2023-05-07T04:31:42;9.27;;;8.40;;
40290;SDS011;26000;48.304;13.626;2023-05-07T04:34:09;9.65;;;8.15;;
40290;SDS011;26000;48.304;13.626;2023-05-07T04:36:36;8.98;;;7.93;;
40290;SDS011;26000;48.304;13.626;2023-05-07T04:39:03;9.63;;;8.20;;
40290;SDS011;26000;48.304;13.626;2023-05-07T04:41:29;10.13;;;7.63;;
40290;SDS011;26000;48.304;13.626;2023-05-07T04:43:55;10.27;;;8.27;;
40290;SDS011;26000;48.304;13.626;2023-05-07T04:46:21;10.57;;;8.38;;
40290;SDS011;26000;48.304;13.626;2023-05-07T04:48:48;10.45;;;8.45;;
40290;SDS011;26000;48.304;13.626;2023-05-07T04:51:14;10.05;;;8.65;;
40290;SDS011;26000;48.304;13.626;2023-05-07T04:53:39;10.57;;;8.55;;
40290;SDS011;26000;48.304;13.626;2023-05-07T04:56:05;9.63;;;8.65;;
40290;SDS011;26000;48.304;13.626;2023-05-07T04:58:31;11.27;;;8.50;;
40290;SDS011;26000;48.304;13.626;2023-05-07T05:00:57;9.55;;;8.55;;
40290;SDS011;26000;48.304;13.626;2023-05-07T05:03:23;15.93;;;8.27;;
40290;SDS011;26000;48.304;13.626;2023-05-07T05:05:50;9.80;;;8.80;;
40290;SDS011;26000;48.304;13.626;2023-05-07T05:08:17;9.13;;;7.80;;
40290;SDS011;26000;48.304;13.626;2023-05-07T05:10:42;11.10;;;8.15;;
40290;SDS011;26000;48.304;13.626;2023-05-07T05:13:08;8.75;;;7.50;;
40290;SDS011;26000;48.304;13.626;2023-05-07T05:15:34;8.05;;;6.85;;
40290;SDS011;26000;48.304;13.626;2023-05-07T05:18:00;7.72;;;6.93;;
40290;SDS011;26000;48.304;13.626;2023-05-07T05:20:26;13.25;;;7.97;;
40290;SDS011;26000;48.304;13.626;2023-05-07T05:22:51;8.30;;;6.97;;
40290;SDS011;26000;48.304;13.626;2023-05-07T05:25:17;9.80;;;7.30;;
40290;SDS011;26000;48.304;13.626;2023-05-07T05:27:43;8.32;;;7.43;;
40290;SDS011;26000;48.304;13.626;2023-05-07T05:30:08;9.18;;;7.70;;
40290;SDS011;26000;48.304;13.626;2023-05-07T05:32:34;10.52;;;7.80;;
40290;SDS011;26000;48.304;13.626;2023-05-07T05:35:00;9.07;;;7.85;;
40290;SDS011;26000;48.304;13.626;2023-05-07T05:37:25;9.95;;;7.28;;
40290;SDS011;26000;48.304;13.626;2023-05-07T05:39:52;7.50;;;6.65;;
40290;SDS011;26000;48.304;13.626;2023-05-07T05:42:19;8.02;;;6.65;;
40290;SDS011;26000;48.304;13.626;2023-05-07T05:44:45;7.97;;;6.88;;
40290;SDS011;26000;48.304;13.626;2023-05-07T05:47:10;7.78;;;6.53;;
40290;SDS011;26000;48.304;13.626;2023-05-07T05:49:36;8.40;;;6.53;;
40290;SDS011;26000;48.304;13.626;2023-05-07T05:52:02;7.47;;;6.57;;
40290;SDS011;26000;48.304;13.626;2023-05-07T05:54:28;6.90;;;6.20;;
40290;SDS011;26000;48.304;13.626;2023-05-07T05:56:53;7.93;;;5.85;;
40290;SDS011;26000;48.304;13.626;2023-05-07T05:59:19;10.23;;;6.70;;
40290;SDS011;26000;48.304;13.626;2023-05-07T06:01:45;7.78;;;6.63;;
40290;SDS011;26000;48.304;13.626;2023-05-07T06:04:10;9.10;;;7.00;;
40290;SDS011;26000;48.304;13.626;2023-05-07T06:06:36;8.23;;;6.70;;
40290;SDS011;26000;48.304;13.626;2023-05-07T06:09:02;9.52;;;6.85;;
40290;SDS011;26000;48.304;13.626;2023-05-07T06:11:27;7.97;;;6.63;;
40290;SDS011;26000;48.304;13.626;2023-05-07T06:13:53;9.73;;;7.10;;
40290;SDS011;26000;48.304;13.626;2023-05-07T06:16:18;8.75;;;7.18;;
40290;SDS011;26000;48.304;13.626;2023-05-07T06:18:44;9.70;;;7.47;;
40290;SDS011;26000;48.304;13.626;2023-05-07T06:21:11;10.15;;;7.15;;
40290;SDS011;26000;48.304;13.626;2023-05-07T06:23:38;8.57;;;7.35;;
40290;SDS011;26000;48.304;13.626;2023-05-07T06:26:05;9.25;;;7.22;;
40290;SDS011;26000;48.304;13.626;2023-05-07T06:28:31;9.10;;;7.15;;
40290;SDS011;26000;48.304;13.626;2023-05-07T06:31:13;8.13;;;7.07;;
40290;SDS011;26000;48.304;13.626;2023-05-07T06:33:45;9.80;;;6.83;;
40290;SDS011;26000;48.304;13.626;2023-05-07T06:36:11;9.07;;;6.70;;
40290;SDS011;26000;48.304;13.626;2023-05-07T06:38:36;7.68;;;6.88;;
40290;SDS011;26000;48.304;13.626;2023-05-07T06:41:02;10.55;;;6.63;;
40290;SDS011;26000;48.304;13.626;2023-05-07T06:43:28;7.57;;;6.78;;
40290;SDS011;26000;48.304;13.626;2023-05-07T06:45:53;9.82;;;7.00;;
40290;SDS011;26000;48.304;13.626;2023-05-07T06:48:19;8.57;;;6.72;;
40290;SDS011;26000;48.304;13.626;2023-05-07T06:50:45;8.55;;;7.00;;
40290;SDS011;26000;48.304;13.626;2023-05-07T06:53:10;9.88;;;7.22;;
40290;SDS011;26000;48.304;13.626;2023-05-07T06:55:36;11.90;;;7.03;;
40290;SDS011;26000;48.304;13.626;2023-05-07T06:58:03;9.30;;;7.05;;
40290;SDS011;26000;48.304;13.626;2023-05-07T07:00:29;9.35;;;7.03;;
40290;SDS011;26000;48.304;13.626;2023-05-07T07:02:55;7.97;;;6.53;;
40290;SDS011;26000;48.304;13.626;2023-05-07T07:05:20;9.73;;;7.80;;
40290;SDS011;26000;48.304;13.626;2023-05-07T07:07:46;9.07;;;7.47;;
40290;SDS011;26000;48.304;13.626;2023-05-07T07:10:21;11.18;;;8.13;;
40290;SDS011;26000;48.304;13.626;2023-05-07T07:12:47;10.05;;;8.60;;
40290;SDS011;26000;48.304;13.626;2023-05-07T07:15:13;8.18;;;7.28;;
40290;SDS011;26000;48.304;13.626;2023-05-07T07:17:39;10.55;;;7.90;;
40290;SDS011;26000;48.304;13.626;2023-05-07T07:20:05;10.52;;;8.32;;
40290;SDS011;26000;48.304;13.626;2023-05-07T07:22:31;9.38;;;8.05;;
40290;SDS011;26000;48.304;13.626;2023-05-07T07:24:57;9.00;;;7.60;;
40290;SDS011;26000;48.304;13.626;2023-05-07T07:27:23;11.63;;;8.10;;
40290;SDS011;26000;48.304;13.626;2023-05-07T07:29:48;10.75;;;8.68;;
40290;SDS011;26000;48.304;13.626;2023-05-07T07:32:14;9.00;;;7.40;;
40290;SDS011;26000;48.304;13.626;2023-05-07T07:34:40;12.07;;;8.05;;
40290;SDS011;26000;48.304;13.626;2023-05-07T07:37:06;8.57;;;7.38;;
40290;SDS011;26000;48.304;13.626;2023-05-07T07:39:32;8.13;;;7.32;;
40290;SDS011;26000;48.304;13.626;2023-05-07T07:41:58;11.77;;;8.07;;
40290;SDS011;26000;48.304;13.626;2023-05-07T07:44:24;9.00;;;7.82;;
40290;SDS011;26000;48.304;13.626;2023-05-07T07:46:50;11.25;;;7.53;;
40290;SDS011;26000;48.304;13.626;2023-05-07T07:49:16;10.02;;;7.00;;
40290;SDS011;26000;48.304;13.626;2023-05-07T07:51:42;8.40;;;7.40;;
40290;SDS011;26000;48.304;13.626;2023-05-07T07:54:08;10.20;;;8.23;;
40290;SDS011;26000;48.304;13.626;2023-05-07T07:56:34;10.23;;;7.82;;
40290;SDS011;26000;48.304;13.626;2023-05-07T07:59:00;12.10;;;7.60;;
40290;SDS011;26000;48.304;13.626;2023-05-07T08:01:26;9.93;;;7.75;;
40290;SDS011;26000;48.304;13.626;2023-05-07T08:03:52;8.82;;;7.35;;
40290;SDS011;26000;48.304;13.626;2023-05-07T08:06:17;9.95;;;7.63;;
40290;SDS011;26000;48.304;13.626;2023-05-07T08:08:43;9.10;;;8.05;;
40290;SDS011;26000;48.304;13.626;2023-05-07T08:11:09;9.88;;;8.25;;
40290;SDS011;26000;48.304;13.626;2023-05-07T08:13:35;10.00;;;7.53;;
40290;SDS011;26000;48.304;13.626;2023-05-07T08:16:01;12.65;;;8.77;;
40290;SDS011;26000;48.304;13.626;2023-05-07T08:18:27;8.98;;;7.72;;
40290;SDS011;26000;48.304;13.626;2023-05-07T08:20:54;10.13;;;8.40;;
40290;SDS011;26000;48.304;13.626;2023-05-07T08:23:19;9.57;;;8.10;;
40290;SDS011;26000;48.304;13.626;2023-05-07T08:25:45;15.60;;;8.55;;
40290;SDS011;26000;48.304;13.626;2023-05-07T08:28:11;10.57;;;8.75;;
40290;SDS011;26000;48.304;13.626;2023-05-07T08:30:37;9.50;;;7.72;;
40290;SDS011;26000;48.304;13.626;2023-05-07T08:33:02;11.80;;;8.25;;
40290;SDS011;26000;48.304;13.626;2023-05-07T08:35:34;9.35;;;8.13;;
40290;SDS011;26000;48.304;13.626;2023-05-07T08:38:05;11.23;;;8.68;;
40290;SDS011;26000;48.304;13.626;2023-05-07T08:40:32;10.50;;;8.75;;
40290;SDS011;26000;48.304;13.626;2023-05-07T08:43:02;9.65;;;8.40;;
40290;SDS011;26000;48.304;13.626;2023-05-07T08:45:30;9.38;;;7.85;;
40290;SDS011;26000;48.304;13.626;2023-05-07T08:48:01;9.00;;;7.78;;
40290;SDS011;26000;48.304;13.626;2023-05-07T08:50:28;8.73;;;7.47;;
40290;SDS011;26000;48.304;13.626;2023-05-07T08:52:54;10.15;;;8.52;;
40290;SDS011;26000;48.304;13.626;2023-05-07T08:55:21;9.90;;;8.40;;
40290;SDS011;26000;48.304;13.626;2023-05-07T08:57:47;10.13;;;8.00;;
40290;SDS011;26000;48.304;13.626;2023-05-07T09:00:13;12.52;;;9.07;;
40290;SDS011;26000;48.304;13.626;2023-05-07T09:02:39;9.52;;;8.50;;
40290;SDS011;26000;48.304;13.626;2023-05-07T09:05:08;12.20;;;8.50;;
40290;SDS011;26000;48.304;13.626;2023-05-07T09:07:34;10.30;;;7.32;;
40290;SDS011;26000;48.304;13.626;2023-05-07T09:10:03;10.25;;;8.75;;
40290;SDS011;26000;48.304;13.626;2023-05-07T09:12:29;14.60;;;7.68;;
40290;SDS011;26000;48.304;13.626;2023-05-07T09:14:55;10.00;;;7.35;;
40290;SDS011;26000;48.304;13.626;2023-05-07T09:17:21;9.70;;;7.68;;
40290;SDS011;26000;48.304;13.626;2023-05-07T09:19:47;9.35;;;7.43;;
40290;SDS011;26000;48.304;13.626;2023-05-07T09:22:13;8.77;;;7.57;;
40290;SDS011;26000;48.304;13.626;2023-05-07T09:24:39;9.95;;;8.32;;
40290;SDS011;26000;48.304;13.626;2023-05-07T09:27:05;9.65;;;7.40;;
40290;SDS011;26000;48.304;13.626;2023-05-07T09:29:31;8.55;;;7.57;;
40290;SDS011;26000;48.304;13.626;2023-05-07T09:32:06;7.78;;;7.03;;
40290;SDS011;26000;48.304;13.626;2023-05-07T09:34:33;9.43;;;8.07;;
40290;SDS011;26000;48.304;13.626;2023-05-07T09:37:00;9.13;;;8.07;;
40290;SDS011;26000;48.304;13.626;2023-05-07T09:39:37;7.93;;;7.00;;
40290;SDS011;26000;48.304;13.626;2023-05-07T09:42:11;11.40;;;7.32;;
40290;SDS011;26000;48.304;13.626;2023-05-07T09:44:40;11.80;;;9.07;;
40290;SDS011;26000;48.304;13.626;2023-05-07T09:47:06;10.25;;;7.40;;
40290;SDS011;26000;48.304;13.626;2023-05-07T09:49:35;10.40;;;8.13;;
40290;SDS011;26000;48.304;13.626;2023-05-07T09:52:02;9.85;;;7.88;;
40290;SDS011;26000;48.304;13.626;2023-05-07T09:54:34;12.15;;;8.77;;
40290;SDS011;26000;48.304;13.626;2023-05-07T09:57:03;10.52;;;8.48;;
40290;SDS011;26000;48.304;13.626;2023-05-07T09:59:32;9.32;;;8.32;;
40290;SDS011;26000;48.304;13.626;2023-05-07T10:01:59;9.93;;;8.27;;
40290;SDS011;26000;48.304;13.626;2023-05-07T10:04:26;11.45;;;8.05;;
40290;SDS011;26000;48.304;13.626;2023-05-07T10:06:52;10.27;;;7.90;;
40290;SDS011;26000;48.304;13.626;2023-05-07T10:09:20;10.73;;;8.10;;
40290;SDS011;26000;48.304;13.626;2023-05-07T10:11:48;10.23;;;8.15;;
40290;SDS011;26000;48.304;13.626;2023-05-07T10:14:15;11.85;;;7.97;;
40290;SDS011;26000;48.304;13.626;2023-05-07T10:16:41;11.57;;;7.97;;
40290;SDS011;26000;48.304;13.626;2023-05-07T10:19:07;11.40;;;8.65;;
40290;SDS011;26000;48.304;13.626;2023-05-07T10:21:37;9.77;;;8.30;;
40290;SDS011;26000;48.304;13.626;2023-05-07T10:24:12;11.75;;;8.90;;
40290;SDS011;26000;48.304;13.626;2023-05-07T10:26:45;8.25;;;7.38;;
40290;SDS011;26000;48.304;13.626;2023-05-07T10:29:21;8.63;;;7.07;;
40290;SDS011;26000;48.304;13.626;2023-05-07T10:32:30;9.60;;;6.78;;
40290;SDS011;26000;48.304;13.626;2023-05-07T10:35:19;13.25;;;7.85;;
40290;SDS011;26000;48.304;13.626;2023-05-07T10:37:48;9.68;;;6.75;;
40290;SDS011;26000;48.304;13.626;2023-05-07T10:40:16;9.95;;;8.95;;
40290;SDS011;26000;48.304;13.626;2023-05-07T10:42:56;13.73;;;8.25;;
40290;SDS011;26000;48.304;13.626;2023-05-07T10:45:25;10.10;;;8.27;;
40290;SDS011;26000;48.304;13.626;2023-05-07T10:50:35;10.13;;;8.77;;
40290;SDS011;26000;48.304;13.626;2023-05-07T10:55:49;7.93;;;6.60;;
40290;SDS011;26000;48.304;13.626;2023-05-07T10:58:26;9.75;;;7.30;;
40290;SDS011;26000;48.304;13.626;2023-05-07T11:01:02;12.20;;;7.38;;
40290;SDS011;26000;48.304;13.626;2023-05-07T11:03:28;10.88;;;7.15;;
40290;SDS011;26000;48.304;13.626;2023-05-07T11:06:11;9.15;;;7.20;;
40290;SDS011;26000;48.304;13.626;2023-05-07T11:11:18;7.93;;;6.32;;
40290;SDS011;26000;48.304;13.626;2023-05-07T11:13:45;8.68;;;6.15;;
40290;SDS011;26000;48.304;13.626;2023-05-07T11:16:22;6.55;;;5.80;;
40290;SDS011;26000;48.304;13.626;2023-05-07T11:18:53;7.15;;;5.88;;
40290;SDS011;26000;48.304;13.626;2023-05-07T11:21:32;6.93;;;5.32;;
40290;SDS011;26000;48.304;13.626;2023-05-07T11:23:58;6.60;;;4.10;;
40290;SDS011;26000;48.304;13.626;2023-05-07T11:26:24;4.78;;;3.55;;
40290;SDS011;26000;48.304;13.626;2023-05-07T11:28:50;4.82;;;4.05;;
40290;SDS011;26000;48.304;13.626;2023-05-07T11:31:20;5.80;;;3.90;;
40290;SDS011;26000;48.304;13.626;2023-05-07T11:33:48;5.45;;;3.85;;
40290;SDS011;26000;48.304;13.626;2023-05-07T11:36:14;4.90;;;3.92;;
40290;SDS011;26000;48.304;13.626;2023-05-07T11:38:40;5.75;;;3.50;;
40290;SDS011;26000;48.304;13.626;2023-05-07T11:41:06;5.55;;;4.60;;
40290;SDS011;26000;48.304;13.626;2023-05-07T11:43:32;6.88;;;4.80;;
40290;SDS011;26000;48.304;13.626;2023-05-07T11:46:07;4.57;;;3.95;;
40290;SDS011;26000;48.304;13.626;2023-05-07T11:48:34;6.87;;;3.50;;
40290;SDS011;26000;48.304;13.626;2023-05-07T11:51:01;5.10;;;4.10;;
40290;SDS011;26000;48.304;13.626;2023-05-07T11:53:35;5.20;;;3.92;;
40290;SDS011;26000;48.304;13.626;2023-05-07T11:56:11;5.15;;;3.00;;
40290;SDS011;26000;48.304;13.626;2023-05-07T11:58:38;2.33;;;2.13;;
40290;SDS011;26000;48.304;13.626;2023-05-07T12:01:07;3.17;;;2.35;;
40290;SDS011;26000;48.304;13.626;2023-05-07T12:03:34;3.67;;;3.13;;
40290;SDS011;26000;48.304;13.626;2023-05-07T12:06:07;5.38;;;3.75;;
40290;SDS011;26000;48.304;13.626;2023-05-07T12:08:35;4.22;;;2.50;;
40290;SDS011;26000;48.304;13.626;2023-05-07T12:11:02;3.08;;;2.80;;
40290;SDS011;26000;48.304;13.626;2023-05-07T12:13:28;3.88;;;2.60;;
40290;SDS011;26000;48.304;13.626;2023-05-07T12:15:57;4.72;;;2.80;;
40290;SDS011;26000;48.304;13.626;2023-05-07T12:18:23;4.35;;;3.22;;
40290;SDS011;26000;48.304;13.626;2023-05-07T12:20:49;3.97;;;2.90;;
40290;SDS011;26000;48.304;13.626;2023-05-07T12:23:16;3.75;;;2.88;;
40290;SDS011;26000;48.304;13.626;2023-05-07T12:25:42;3.05;;;2.53;;
40290;SDS011;26000;48.304;13.626;2023-05-07T12:28:14;4.65;;;3.00;;
40290;SDS011;26000;48.304;13.626;2023-05-07T12:30:45;3.30;;;2.90;;
40290;SDS011;26000;48.304;13.626;2023-05-07T12:33:18;4.47;;;2.97;;
40290;SDS011;26000;48.304;13.626;2023-05-07T12:35:48;3.20;;;2.90;;
40290;SDS011;26000;48.304;13.626;2023-05-07T12:38:15;4.28;;;3.00;;
40290;SDS011;26000;48.304;13.626;2023-05-07T12:43:18;3.53;;;2.65;;
40290;SDS011;26000;48.304;13.626;2023-05-07T12:45:46;4.15;;;3.25;;
40290;SDS011;26000;48.304;13.626;2023-05-07T12:48:13;5.20;;;3.10;;
40290;SDS011;26000;48.304;13.626;2023-05-07T12:50:39;3.15;;;2.50;;
40290;SDS011;26000;48.304;13.626;2023-05-07T12:53:05;4.35;;;2.92;;
40290;SDS011;26000;48.304;13.626;2023-05-07T12:55:34;4.65;;;3.97;;
40290;SDS011;26000;48.304;13.626;2023-05-07T12:58:16;4.97;;;3.90;;
40290;SDS011;26000;48.304;13.626;2023-05-07T13:00:44;5.40;;;3.92;;
40290;SDS011;26000;48.304;13.626;2023-05-07T13:03:16;4.30;;;3.90;;
40290;SDS011;26000;48.304;13.626;2023-05-07T13:05:57;5.15;;;4.55;;
40290;SDS011;26000;48.304;13.626;2023-05-07T13:08:33;6.03;;;4.60;;
40290;SDS011;26000;48.304;13.626;2023-05-07T13:11:03;5.35;;;4.68;;
40290;SDS011;26000;48.304;13.626;2023-05-07T13:13:30;7.28;;;4.97;;
40290;SDS011;26000;48.304;13.626;2023-05-07T13:15:57;6.13;;;5.13;;
40290;SDS011;26000;48.304;13.626;2023-05-07T13:18:24;5.32;;;4.32;;
40290;SDS011;26000;48.304;13.626;2023-05-07T13:20:50;5.25;;;4.38;;
40290;SDS011;26000;48.304;13.626;2023-05-07T13:23:16;7.43;;;4.80;;
40290;SDS011;26000;48.304;13.626;2023-05-07T13:25:42;6.70;;;5.63;;
40290;SDS011;26000;48.304;13.626;2023-05-07T13:28:07;7.05;;;5.97;;
40290;SDS011;26000;48.304;13.626;2023-05-07T13:30:33;6.00;;;5.40;;
40290;SDS011;26000;48.304;13.626;2023-05-07T13:32:59;7.97;;;5.90;;
40290;SDS011;26000;48.304;13.626;2023-05-07T13:35:25;8.00;;;5.60;;
40290;SDS011;26000;48.304;13.626;2023-05-07T13:37:51;7.43;;;5.93;;
40290;SDS011;26000;48.304;13.626;2023-05-07T13:40:17;6.68;;;5.75;;
40290;SDS011;26000;48.304;13.626;2023-05-07T13:42:44;7.38;;;6.30;;
40290;SDS011;26000;48.304;13.626;2023-05-07T13:45:10;7.28;;;5.88;;
40290;SDS011;26000;48.304;13.626;2023-05-07T13:47:35;6.25;;;5.63;;
40290;SDS011;26000;48.304;13.626;2023-05-07T13:50:01;7.63;;;5.35;;
40290;SDS011;26000;48.304;13.626;2023-05-07T13:52:27;6.20;;;5.60;;
40290;SDS011;26000;48.304;13.626;2023-05-07T13:54:52;7.32;;;5.82;;
40290;SDS011;26000;48.304;13.626;2023-05-07T13:57:18;8.27;;;6.20;;
40290;SDS011;26000;48.304;13.626;2023-05-07T13:59:44;7.05;;;6.35;;
40290;SDS011;26000;48.304;13.626;2023-05-07T14:02:09;8.73;;;5.53;;
40290;SDS011;26000;48.304;13.626;2023-05-07T14:04:35;7.95;;;6.50;;
40290;SDS011;26000;48.304;13.626;2023-05-07T14:07:02;9.68;;;6.53;;
40290;SDS011;26000;48.304;13.626;2023-05-07T14:09:28;6.82;;;6.13;;
40290;SDS011;26000;48.304;13.626;2023-05-07T14:11:53;6.78;;;5.45;;
40290;SDS011;26000;48.304;13.626;2023-05-07T14:14:19;6.30;;;5.70;;
40290;SDS011;26000;48.304;13.626;2023-05-07T14:16:45;6.07;;;5.10;;
40290;SDS011;26000;48.304;13.626;2023-05-07T14:19:13;5.90;;;5.30;;
40290;SDS011;26000;48.304;13.626;2023-05-07T14:21:39;6.20;;;5.53;;
40290;SDS011;26000;48.304;13.626;2023-05-07T14:24:06;6.90;;;5.90;;
40290;SDS011;26000;48.304;13.626;2023-05-07T14:26:35;7.40;;;5.88;;
40290;SDS011;26000;48.304;13.626;2023-05-07T14:29:01;7.03;;;6.22;;
40290;SDS011;26000;48.304;13.626;2023-05-07T14:31:27;5.88;;;5.22;;
40290;SDS011;26000;48.304;13.626;2023-05-07T14:33:52;7.43;;;5.45;;
40290;SDS011;26000;48.304;13.626;2023-05-07T14:36:18;6.82;;;5.25;;